sensor_id;sensor_type;location;lat;lon;timestamp;P1;durP1;ratioP1;P2;durP2;ratioP2
22715;SDS011;11525;51.152;4.456;2023-04-21T00:00:06;16.50;;;14.65;;
22715;SDS011;11525;51.152;4.456;2023-04-21T00:02:34;16.95;;;14.75;;
22715;SDS011;11525;51.152;4.456;2023-04-21T00:05:04;16.58;;;13.90;;
22715;SDS011;11525;51.152;4.456;2023-04-21T00:07:34;17.63;;;15.27;;
22715;SDS011;11525;51.152;4.456;2023-04-21T00:10:02;14.80;;;12.60;;
22715;SDS011;11525;51.152;4.456;2023-04-21T00:12:31;17.98;;;13.45;;
22715;SDS011;11525;51.152;4.456;2023-04-21T00:14:57;16.10;;;12.75;;
22715;SDS011;11525;51.152;4.456;2023-04-21T00:17:23;16.60;;;14.82;;
22715;SDS011;11525;51.152;4.456;2023-04-21T00:19:48;17.55;;;15.13;;
22715;SDS011;11525;51.152;4.456;2023-04-21T00:22:14;17.27;;;14.65;;
22715;SDS011;11525;51.152;4.456;2023-04-21T00:24:40;16.30;;;12.00;;
22715;SDS011;11525;51.152;4.456;2023-04-21T00:27:06;17.17;;;14.65;;
22715;SDS011;11525;51.152;4.456;2023-04-21T00:29:32;17.58;;;15.73;;
22715;SDS011;11525;51.152;4.456;2023-04-21T00:31:58;16.90;;;14.45;;
22715;SDS011;11525;51.152;4.456;2023-04-21T00:34:26;17.60;;;15.75;;
22715;SDS011;11525;51.152;4.456;2023-04-21T00:36:51;17.88;;;15.98;;
22715;SDS011;11525;51.152;4.456;2023-04-21T00:39:17;16.77;;;13.68;;
22715;SDS011;11525;51.152;4.456;2023-04-21T00:41:43;17.25;;;13.93;;
22715;SDS011;11525;51.152;4.456;2023-04-21T00:44:09;18.42;;;13.70;;
22715;SDS011;11525;51.152;4.456;2023-04-21T00:46:35;19.40;;;17.15;;
22715;SDS011;11525;51.152;4.456;2023-04-21T00:49:05;21.20;;;17.80;;
22715;SDS011;11525;51.152;4.456;2023-04-21T00:51:32;20.58;;;17.65;;
22715;SDS011;11525;51.152;4.456;2023-04-21T00:53:59;19.55;;;15.48;;
22715;SDS011;11525;51.152;4.456;2023-04-21T00:56:29;21.35;;;19.05;;
22715;SDS011;11525;51.152;4.456;2023-04-21T00:58:56;22.80;;;19.27;;
22715;SDS011;11525;51.152;4.456;2023-04-21T01:01:23;23.85;;;19.92;;
22715;SDS011;11525;51.152;4.456;2023-04-21T01:03:49;21.23;;;18.55;;
22715;SDS011;11525;51.152;4.456;2023-04-21T01:06:16;24.58;;;20.20;;
22715;SDS011;11525;51.152;4.456;2023-04-21T01:08:45;23.40;;;20.90;;
22715;SDS011;11525;51.152;4.456;2023-04-21T01:11:11;26.02;;;22.33;;
22715;SDS011;11525;51.152;4.456;2023-04-21T01:13:38;25.10;;;22.40;;
22715;SDS011;11525;51.152;4.456;2023-04-21T01:16:04;30.23;;;24.52;;
22715;SDS011;11525;51.152;4.456;2023-04-21T01:18:32;27.65;;;23.73;;
22715;SDS011;11525;51.152;4.456;2023-04-21T01:20:58;29.42;;;24.00;;
22715;SDS011;11525;51.152;4.456;2023-04-21T01:23:24;30.30;;;25.45;;
22715;SDS011;11525;51.152;4.456;2023-04-21T01:25:50;29.17;;;21.42;;
22715;SDS011;11525;51.152;4.456;2023-04-21T01:28:23;30.45;;;24.98;;
22715;SDS011;11525;51.152;4.456;2023-04-21T01:30:49;30.05;;;25.83;;
22715;SDS011;11525;51.152;4.456;2023-04-21T01:33:16;31.08;;;24.92;;
22715;SDS011;11525;51.152;4.456;2023-04-21T01:35:43;33.05;;;27.35;;
22715;SDS011;11525;51.152;4.456;2023-04-21T01:38:09;32.50;;;27.35;;
22715;SDS011;11525;51.152;4.456;2023-04-21T01:40:35;38.30;;;30.23;;
22715;SDS011;11525;51.152;4.456;2023-04-21T01:43:01;33.97;;;28.27;;
22715;SDS011;11525;51.152;4.456;2023-04-21T01:45:28;38.15;;;29.13;;
22715;SDS011;11525;51.152;4.456;2023-04-21T01:47:57;38.35;;;30.92;;
22715;SDS011;11525;51.152;4.456;2023-04-21T01:50:22;34.92;;;29.48;;
22715;SDS011;11525;51.152;4.456;2023-04-21T01:52:48;38.33;;;29.95;;
22715;SDS011;11525;51.152;4.456;2023-04-21T01:55:14;39.03;;;31.02;;
22715;SDS011;11525;51.152;4.456;2023-04-21T01:57:40;35.70;;;23.88;;
22715;SDS011;11525;51.152;4.456;2023-04-21T02:00:06;40.15;;;31.90;;
22715;SDS011;11525;51.152;4.456;2023-04-21T02:02:33;41.83;;;31.70;;
22715;SDS011;11525;51.152;4.456;2023-04-21T02:04:59;39.55;;;32.08;;
22715;SDS011;11525;51.152;4.456;2023-04-21T02:07:24;42.17;;;32.97;;
22715;SDS011;11525;51.152;4.456;2023-04-21T02:09:50;39.72;;;31.10;;
22715;SDS011;11525;51.152;4.456;2023-04-21T02:12:16;43.85;;;32.92;;
22715;SDS011;11525;51.152;4.456;2023-04-21T02:14:42;39.33;;;31.70;;
22715;SDS011;11525;51.152;4.456;2023-04-21T02:17:07;41.03;;;31.63;;
22715;SDS011;11525;51.152;4.456;2023-04-21T02:19:33;43.30;;;33.17;;
22715;SDS011;11525;51.152;4.456;2023-04-21T02:21:59;40.67;;;33.08;;
22715;SDS011;11525;51.152;4.456;2023-04-21T02:24:25;43.90;;;33.97;;
22715;SDS011;11525;51.152;4.456;2023-04-21T02:26:51;39.72;;;28.13;;
22715;SDS011;11525;51.152;4.456;2023-04-21T02:29:16;38.42;;;27.90;;
22715;SDS011;11525;51.152;4.456;2023-04-21T02:31:42;43.63;;;33.92;;
22715;SDS011;11525;51.152;4.456;2023-04-21T02:34:08;45.60;;;35.20;;
22715;SDS011;11525;51.152;4.456;2023-04-21T02:36:34;44.47;;;33.55;;
22715;SDS011;11525;51.152;4.456;2023-04-21T02:38:59;51.13;;;36.95;;
22715;SDS011;11525;51.152;4.456;2023-04-21T02:41:25;49.78;;;36.53;;
22715;SDS011;11525;51.152;4.456;2023-04-21T02:43:51;49.47;;;36.95;;
22715;SDS011;11525;51.152;4.456;2023-04-21T02:46:16;49.85;;;36.17;;
22715;SDS011;11525;51.152;4.456;2023-04-21T02:48:42;50.90;;;37.17;;
22715;SDS011;11525;51.152;4.456;2023-04-21T02:51:11;49.55;;;37.15;;
22715;SDS011;11525;51.152;4.456;2023-04-21T02:53:38;48.92;;;38.33;;
22715;SDS011;11525;51.152;4.456;2023-04-21T02:56:05;52.20;;;37.88;;
22715;SDS011;11525;51.152;4.456;2023-04-21T02:58:33;53.22;;;38.53;;
22715;SDS011;11525;51.152;4.456;2023-04-21T03:01:00;54.60;;;39.40;;
22715;SDS011;11525;51.152;4.456;2023-04-21T03:03:27;54.08;;;39.75;;
22715;SDS011;11525;51.152;4.456;2023-04-21T03:06:00;55.03;;;39.85;;
22715;SDS011;11525;51.152;4.456;2023-04-21T03:08:27;51.75;;;38.25;;
22715;SDS011;11525;51.152;4.456;2023-04-21T03:10:53;52.58;;;37.95;;
22715;SDS011;11525;51.152;4.456;2023-04-21T03:13:19;52.60;;;38.05;;
22715;SDS011;11525;51.152;4.456;2023-04-21T03:15:45;51.83;;;37.75;;
22715;SDS011;11525;51.152;4.456;2023-04-21T03:18:10;50.65;;;38.00;;
22715;SDS011;11525;51.152;4.456;2023-04-21T03:20:36;52.17;;;37.53;;
22715;SDS011;11525;51.152;4.456;2023-04-21T03:23:02;51.92;;;37.08;;
22715;SDS011;11525;51.152;4.456;2023-04-21T03:25:28;52.55;;;38.88;;
22715;SDS011;11525;51.152;4.456;2023-04-21T03:27:54;51.67;;;37.58;;
22715;SDS011;11525;51.152;4.456;2023-04-21T03:30:21;54.30;;;38.25;;
22715;SDS011;11525;51.152;4.456;2023-04-21T03:32:48;53.72;;;39.38;;
22715;SDS011;11525;51.152;4.456;2023-04-21T03:35:14;54.60;;;38.30;;
22715;SDS011;11525;51.152;4.456;2023-04-21T03:37:40;54.88;;;38.13;;
22715;SDS011;11525;51.152;4.456;2023-04-21T03:40:06;46.00;;;29.73;;
22715;SDS011;11525;51.152;4.456;2023-04-21T03:42:33;51.00;;;31.38;;
22715;SDS011;11525;51.152;4.456;2023-04-21T03:45:06;52.20;;;38.15;;
22715;SDS011;11525;51.152;4.456;2023-04-21T03:47:34;50.33;;;37.00;;
22715;SDS011;11525;51.152;4.456;2023-04-21T03:50:00;51.28;;;37.70;;
22715;SDS011;11525;51.152;4.456;2023-04-21T03:52:28;46.20;;;29.92;;
22715;SDS011;11525;51.152;4.456;2023-04-21T03:54:54;51.05;;;36.78;;
22715;SDS011;11525;51.152;4.456;2023-04-21T03:57:20;48.80;;;36.75;;
22715;SDS011;11525;51.152;4.456;2023-04-21T03:59:46;45.13;;;29.38;;
22715;SDS011;11525;51.152;4.456;2023-04-21T04:02:12;50.25;;;36.70;;
22715;SDS011;11525;51.152;4.456;2023-04-21T04:04:37;47.58;;;35.15;;
22715;SDS011;11525;51.152;4.456;2023-04-21T04:07:03;50.90;;;32.15;;
22715;SDS011;11525;51.152;4.456;2023-04-21T04:09:31;46.85;;;30.20;;
22715;SDS011;11525;51.152;4.456;2023-04-21T04:11:57;53.97;;;38.75;;
22715;SDS011;11525;51.152;4.456;2023-04-21T04:14:23;56.33;;;39.28;;
22715;SDS011;11525;51.152;4.456;2023-04-21T04:16:48;57.13;;;39.85;;
22715;SDS011;11525;51.152;4.456;2023-04-21T04:19:14;53.78;;;39.00;;
22715;SDS011;11525;51.152;4.456;2023-04-21T04:21:40;50.15;;;32.22;;
22715;SDS011;11525;51.152;4.456;2023-04-21T04:24:06;47.38;;;29.42;;
22715;SDS011;11525;51.152;4.456;2023-04-21T04:26:32;59.20;;;39.50;;
22715;SDS011;11525;51.152;4.456;2023-04-21T04:28:59;59.80;;;40.72;;
22715;SDS011;11525;51.152;4.456;2023-04-21T04:31:27;56.15;;;40.63;;
22715;SDS011;11525;51.152;4.456;2023-04-21T04:33:54;57.42;;;38.60;;
22715;SDS011;11525;51.152;4.456;2023-04-21T04:36:20;61.05;;;41.85;;
22715;SDS011;11525;51.152;4.456;2023-04-21T04:38:46;60.83;;;40.42;;
22715;SDS011;11525;51.152;4.456;2023-04-21T04:41:12;63.78;;;42.20;;
22715;SDS011;11525;51.152;4.456;2023-04-21T04:43:39;63.35;;;40.75;;
22715;SDS011;11525;51.152;4.456;2023-04-21T04:46:05;62.00;;;42.08;;
22715;SDS011;11525;51.152;4.456;2023-04-21T04:48:33;62.42;;;41.10;;
22715;SDS011;11525;51.152;4.456;2023-04-21T04:50:59;57.20;;;35.28;;
22715;SDS011;11525;51.152;4.456;2023-04-21T04:53:27;60.13;;;35.38;;
22715;SDS011;11525;51.152;4.456;2023-04-21T04:55:53;70.95;;;43.42;;
22715;SDS011;11525;51.152;4.456;2023-04-21T04:58:21;67.32;;;44.53;;
22715;SDS011;11525;51.152;4.456;2023-04-21T05:00:47;75.25;;;44.90;;
22715;SDS011;11525;51.152;4.456;2023-04-21T05:03:13;61.42;;;35.90;;
22715;SDS011;11525;51.152;4.456;2023-04-21T05:05:39;72.43;;;46.25;;
22715;SDS011;11525;51.152;4.456;2023-04-21T05:08:04;65.70;;;42.80;;
22715;SDS011;11525;51.152;4.456;2023-04-21T05:10:30;69.22;;;46.28;;
22715;SDS011;11525;51.152;4.456;2023-04-21T05:12:56;71.53;;;46.08;;
22715;SDS011;11525;51.152;4.456;2023-04-21T05:15:21;65.38;;;43.33;;
22715;SDS011;11525;51.152;4.456;2023-04-21T05:17:47;66.95;;;44.55;;
22715;SDS011;11525;51.152;4.456;2023-04-21T05:20:13;78.22;;;46.35;;
22715;SDS011;11525;51.152;4.456;2023-04-21T05:22:39;68.53;;;45.15;;
22715;SDS011;11525;51.152;4.456;2023-04-21T05:25:05;67.13;;;44.33;;
22715;SDS011;11525;51.152;4.456;2023-04-21T05:27:32;64.45;;;42.53;;
22715;SDS011;11525;51.152;4.456;2023-04-21T05:29:58;67.90;;;43.53;;
22715;SDS011;11525;51.152;4.456;2023-04-21T05:32:24;66.13;;;36.90;;
22715;SDS011;11525;51.152;4.456;2023-04-21T05:34:50;57.47;;;36.15;;
22715;SDS011;11525;51.152;4.456;2023-04-21T05:37:16;61.28;;;37.03;;
22715;SDS011;11525;51.152;4.456;2023-04-21T05:39:42;61.95;;;43.78;;
22715;SDS011;11525;51.152;4.456;2023-04-21T05:42:08;59.95;;;43.33;;
22715;SDS011;11525;51.152;4.456;2023-04-21T05:44:35;63.33;;;42.92;;
22715;SDS011;11525;51.152;4.456;2023-04-21T05:47:02;61.53;;;43.15;;
22715;SDS011;11525;51.152;4.456;2023-04-21T05:49:28;60.78;;;36.28;;
22715;SDS011;11525;51.152;4.456;2023-04-21T05:51:54;58.50;;;41.30;;
22715;SDS011;11525;51.152;4.456;2023-04-21T05:54:20;57.55;;;35.00;;
22715;SDS011;11525;51.152;4.456;2023-04-21T05:56:46;55.97;;;33.65;;
22715;SDS011;11525;51.152;4.456;2023-04-21T05:59:12;56.70;;;34.45;;
22715;SDS011;11525;51.152;4.456;2023-04-21T06:01:38;54.47;;;34.50;;
22715;SDS011;11525;51.152;4.456;2023-04-21T06:04:04;57.60;;;36.83;;
22715;SDS011;11525;51.152;4.456;2023-04-21T06:06:30;52.85;;;32.38;;
22715;SDS011;11525;51.152;4.456;2023-04-21T06:08:56;58.15;;;40.92;;
22715;SDS011;11525;51.152;4.456;2023-04-21T06:11:21;62.90;;;44.20;;
22715;SDS011;11525;51.152;4.456;2023-04-21T06:13:48;58.97;;;40.53;;
22715;SDS011;11525;51.152;4.456;2023-04-21T06:16:14;54.38;;;38.30;;
22715;SDS011;11525;51.152;4.456;2023-04-21T06:18:40;48.63;;;32.75;;
22715;SDS011;11525;51.152;4.456;2023-04-21T06:21:06;43.55;;;28.55;;
22715;SDS011;11525;51.152;4.456;2023-04-21T06:23:31;45.83;;;30.10;;
22715;SDS011;11525;51.152;4.456;2023-04-21T06:25:58;40.47;;;27.52;;
22715;SDS011;11525;51.152;4.456;2023-04-21T06:28:29;40.55;;;26.40;;
22715;SDS011;11525;51.152;4.456;2023-04-21T06:30:56;36.08;;;26.20;;
22715;SDS011;11525;51.152;4.456;2023-04-21T06:33:23;34.20;;;26.92;;
22715;SDS011;11525;51.152;4.456;2023-04-21T06:35:49;34.45;;;27.80;;
22715;SDS011;11525;51.152;4.456;2023-04-21T06:38:15;34.83;;;26.65;;
22715;SDS011;11525;51.152;4.456;2023-04-21T06:40:41;31.30;;;26.08;;
22715;SDS011;11525;51.152;4.456;2023-04-21T06:43:06;32.92;;;26.10;;
22715;SDS011;11525;51.152;4.456;2023-04-21T06:45:32;30.65;;;25.23;;
22715;SDS011;11525;51.152;4.456;2023-04-21T06:47:58;30.02;;;24.45;;
22715;SDS011;11525;51.152;4.456;2023-04-21T06:50:23;31.17;;;25.58;;
22715;SDS011;11525;51.152;4.456;2023-04-21T06:52:49;30.05;;;24.92;;
22715;SDS011;11525;51.152;4.456;2023-04-21T06:55:15;31.90;;;24.23;;
22715;SDS011;11525;51.152;4.456;2023-04-21T06:57:41;29.25;;;24.38;;
22715;SDS011;11525;51.152;4.456;2023-04-21T07:00:07;31.02;;;24.40;;
22715;SDS011;11525;51.152;4.456;2023-04-21T07:02:33;28.67;;;24.27;;
22715;SDS011;11525;51.152;4.456;2023-04-21T07:04:59;26.55;;;22.23;;
22715;SDS011;11525;51.152;4.456;2023-04-21T07:07:25;28.85;;;24.02;;
22715;SDS011;11525;51.152;4.456;2023-04-21T07:09:51;29.38;;;24.55;;
22715;SDS011;11525;51.152;4.456;2023-04-21T07:12:17;27.13;;;23.25;;
22715;SDS011;11525;51.152;4.456;2023-04-21T07:14:43;26.88;;;23.08;;
22715;SDS011;11525;51.152;4.456;2023-04-21T07:17:09;26.90;;;23.00;;
22715;SDS011;11525;51.152;4.456;2023-04-21T07:19:35;28.77;;;22.77;;
22715;SDS011;11525;51.152;4.456;2023-04-21T07:22:01;28.55;;;23.73;;
22715;SDS011;11525;51.152;4.456;2023-04-21T07:24:27;27.67;;;23.65;;
22715;SDS011;11525;51.152;4.456;2023-04-21T07:26:52;25.48;;;22.50;;
22715;SDS011;11525;51.152;4.456;2023-04-21T07:29:18;26.30;;;22.27;;
22715;SDS011;11525;51.152;4.456;2023-04-21T07:31:44;25.83;;;21.90;;
22715;SDS011;11525;51.152;4.456;2023-04-21T07:34:12;26.92;;;22.15;;
22715;SDS011;11525;51.152;4.456;2023-04-21T07:36:38;24.52;;;21.27;;
22715;SDS011;11525;51.152;4.456;2023-04-21T07:39:04;24.92;;;20.80;;
22715;SDS011;11525;51.152;4.456;2023-04-21T07:41:30;25.52;;;21.95;;
22715;SDS011;11525;51.152;4.456;2023-04-21T07:43:56;27.13;;;21.77;;
22715;SDS011;11525;51.152;4.456;2023-04-21T07:46:22;24.13;;;21.13;;
22715;SDS011;11525;51.152;4.456;2023-04-21T07:48:57;24.40;;;20.63;;
22715;SDS011;11525;51.152;4.456;2023-04-21T07:51:23;28.20;;;21.92;;
22715;SDS011;11525;51.152;4.456;2023-04-21T07:53:51;26.80;;;22.55;;
22715;SDS011;11525;51.152;4.456;2023-04-21T07:56:18;23.50;;;20.45;;
22715;SDS011;11525;51.152;4.456;2023-04-21T07:58:44;25.58;;;21.83;;
22715;SDS011;11525;51.152;4.456;2023-04-21T08:01:09;25.58;;;21.30;;
22715;SDS011;11525;51.152;4.456;2023-04-21T08:03:35;26.35;;;21.85;;
22715;SDS011;11525;51.152;4.456;2023-04-21T08:06:02;25.10;;;21.58;;
22715;SDS011;11525;51.152;4.456;2023-04-21T08:08:28;26.40;;;21.05;;
22715;SDS011;11525;51.152;4.456;2023-04-21T08:10:54;24.30;;;21.55;;
22715;SDS011;11525;51.152;4.456;2023-04-21T08:13:20;21.65;;;18.88;;
22715;SDS011;11525;51.152;4.456;2023-04-21T08:15:49;20.92;;;18.30;;
22715;SDS011;11525;51.152;4.456;2023-04-21T08:18:18;23.00;;;20.23;;
22715;SDS011;11525;51.152;4.456;2023-04-21T08:20:45;25.50;;;21.15;;
22715;SDS011;11525;51.152;4.456;2023-04-21T08:23:12;25.65;;;21.27;;
22715;SDS011;11525;51.152;4.456;2023-04-21T08:25:38;22.48;;;20.08;;
22715;SDS011;11525;51.152;4.456;2023-04-21T08:28:04;23.70;;;18.88;;
22715;SDS011;11525;51.152;4.456;2023-04-21T08:30:30;21.40;;;18.92;;
22715;SDS011;11525;51.152;4.456;2023-04-21T08:32:56;23.70;;;20.02;;
22715;SDS011;11525;51.152;4.456;2023-04-21T08:35:22;22.38;;;18.80;;
22715;SDS011;11525;51.152;4.456;2023-04-21T08:37:48;24.02;;;20.25;;
22715;SDS011;11525;51.152;4.456;2023-04-21T08:40:14;21.13;;;18.92;;
22715;SDS011;11525;51.152;4.456;2023-04-21T08:42:40;21.38;;;17.98;;
22715;SDS011;11525;51.152;4.456;2023-04-21T08:45:06;19.33;;;17.23;;
22715;SDS011;11525;51.152;4.456;2023-04-21T08:47:33;18.80;;;16.80;;
22715;SDS011;11525;51.152;4.456;2023-04-21T08:50:02;19.35;;;17.30;;
22715;SDS011;11525;51.152;4.456;2023-04-21T08:52:27;17.10;;;15.05;;
22715;SDS011;11525;51.152;4.456;2023-04-21T08:54:54;18.05;;;14.93;;
22715;SDS011;11525;51.152;4.456;2023-04-21T08:57:20;17.90;;;15.70;;
22715;SDS011;11525;51.152;4.456;2023-04-21T08:59:46;17.40;;;14.73;;
22715;SDS011;11525;51.152;4.456;2023-04-21T09:02:15;15.82;;;14.15;;
22715;SDS011;11525;51.152;4.456;2023-04-21T09:04:46;18.42;;;15.77;;
22715;SDS011;11525;51.152;4.456;2023-04-21T09:07:35;16.15;;;14.35;;
22715;SDS011;11525;51.152;4.456;2023-04-21T09:10:02;18.10;;;16.20;;
22715;SDS011;11525;51.152;4.456;2023-04-21T09:12:29;19.75;;;17.42;;
22715;SDS011;11525;51.152;4.456;2023-04-21T09:14:55;18.77;;;16.77;;
22715;SDS011;11525;51.152;4.456;2023-04-21T09:17:26;21.08;;;18.08;;
22715;SDS011;11525;51.152;4.456;2023-04-21T09:19:56;19.58;;;16.38;;
22715;SDS011;11525;51.152;4.456;2023-04-21T09:22:36;20.98;;;18.27;;
22715;SDS011;11525;51.152;4.456;2023-04-21T09:25:02;18.88;;;16.88;;
22715;SDS011;11525;51.152;4.456;2023-04-21T09:27:28;19.25;;;17.23;;
22715;SDS011;11525;51.152;4.456;2023-04-21T09:29:54;19.88;;;17.75;;
22715;SDS011;11525;51.152;4.456;2023-04-21T09:32:19;20.33;;;16.90;;
22715;SDS011;11525;51.152;4.456;2023-04-21T09:34:45;17.10;;;15.30;;
22715;SDS011;11525;51.152;4.456;2023-04-21T09:37:12;19.13;;;16.05;;
22715;SDS011;11525;51.152;4.456;2023-04-21T09:39:38;19.27;;;15.82;;
22715;SDS011;11525;51.152;4.456;2023-04-21T09:42:05;18.70;;;16.70;;
22715;SDS011;11525;51.152;4.456;2023-04-21T09:44:34;18.25;;;16.33;;
22715;SDS011;11525;51.152;4.456;2023-04-21T09:47:02;18.50;;;15.65;;
22715;SDS011;11525;51.152;4.456;2023-04-21T09:49:30;17.83;;;15.70;;
22715;SDS011;11525;51.152;4.456;2023-04-21T09:51:59;17.40;;;15.52;;
22715;SDS011;11525;51.152;4.456;2023-04-21T09:54:30;17.73;;;15.52;;
22715;SDS011;11525;51.152;4.456;2023-04-21T09:56:58;16.35;;;14.23;;
22715;SDS011;11525;51.152;4.456;2023-04-21T09:59:35;15.90;;;14.30;;
22715;SDS011;11525;51.152;4.456;2023-04-21T10:02:05;16.35;;;14.65;;
22715;SDS011;11525;51.152;4.456;2023-04-21T10:04:32;15.27;;;12.48;;
22715;SDS011;11525;51.152;4.456;2023-04-21T10:06:59;14.63;;;11.82;;
22715;SDS011;11525;51.152;4.456;2023-04-21T10:09:48;13.65;;;11.77;;
22715;SDS011;11525;51.152;4.456;2023-04-21T10:12:14;14.27;;;12.00;;
22715;SDS011;11525;51.152;4.456;2023-04-21T10:14:42;15.45;;;13.15;;
22715;SDS011;11525;51.152;4.456;2023-04-21T10:17:09;12.82;;;11.48;;
22715;SDS011;11525;51.152;4.456;2023-04-21T10:19:37;14.63;;;11.52;;
22715;SDS011;11525;51.152;4.456;2023-04-21T10:22:12;12.18;;;10.75;;
22715;SDS011;11525;51.152;4.456;2023-04-21T10:24:38;11.82;;;10.55;;
22715;SDS011;11525;51.152;4.456;2023-04-21T10:27:08;13.13;;;11.05;;
22715;SDS011;11525;51.152;4.456;2023-04-21T10:29:54;13.73;;;12.32;;
22715;SDS011;11525;51.152;4.456;2023-04-21T10:32:40;11.57;;;10.35;;
22715;SDS011;11525;51.152;4.456;2023-04-21T10:35:10;16.52;;;13.15;;
22715;SDS011;11525;51.152;4.456;2023-04-21T10:37:41;14.60;;;12.00;;
22715;SDS011;11525;51.152;4.456;2023-04-21T10:42:55;14.07;;;10.98;;
22715;SDS011;11525;51.152;4.456;2023-04-21T10:45:23;12.85;;;11.27;;
22715;SDS011;11525;51.152;4.456;2023-04-21T10:47:51;12.60;;;10.85;;
22715;SDS011;11525;51.152;4.456;2023-04-21T10:50:21;13.27;;;11.25;;
22715;SDS011;11525;51.152;4.456;2023-04-21T10:55:18;14.02;;;11.40;;
22715;SDS011;11525;51.152;4.456;2023-04-21T10:57:46;14.57;;;10.60;;
22715;SDS011;11525;51.152;4.456;2023-04-21T11:00:19;14.43;;;12.32;;
22715;SDS011;11525;51.152;4.456;2023-04-21T11:03:00;12.05;;;10.43;;
22715;SDS011;11525;51.152;4.456;2023-04-21T11:05:28;12.80;;;9.93;;
22715;SDS011;11525;51.152;4.456;2023-04-21T11:08:02;12.45;;;11.07;;
22715;SDS011;11525;51.152;4.456;2023-04-21T11:10:28;13.52;;;11.48;;
22715;SDS011;11525;51.152;4.456;2023-04-21T11:12:55;14.27;;;12.40;;
22715;SDS011;11525;51.152;4.456;2023-04-21T11:15:22;16.52;;;12.95;;
22715;SDS011;11525;51.152;4.456;2023-04-21T11:17:47;16.80;;;14.10;;
22715;SDS011;11525;51.152;4.456;2023-04-21T11:20:14;18.05;;;14.20;;
22715;SDS011;11525;51.152;4.456;2023-04-21T11:22:40;22.45;;;16.25;;
22715;SDS011;11525;51.152;4.456;2023-04-21T11:25:05;21.38;;;16.42;;
22715;SDS011;11525;51.152;4.456;2023-04-21T11:27:41;16.15;;;13.20;;
22715;SDS011;11525;51.152;4.456;2023-04-21T11:30:07;19.42;;;16.27;;
22715;SDS011;11525;51.152;4.456;2023-04-21T11:32:33;19.90;;;16.17;;
22715;SDS011;11525;51.152;4.456;2023-04-21T11:34:59;19.80;;;16.40;;
22715;SDS011;11525;51.152;4.456;2023-04-21T11:37:25;18.30;;;16.30;;
22715;SDS011;11525;51.152;4.456;2023-04-21T11:39:58;19.17;;;15.00;;
22715;SDS011;11525;51.152;4.456;2023-04-21T11:42:25;17.90;;;15.70;;
22715;SDS011;11525;51.152;4.456;2023-04-21T11:44:54;19.55;;;16.20;;
22715;SDS011;11525;51.152;4.456;2023-04-21T11:47:26;17.88;;;15.23;;
22715;SDS011;11525;51.152;4.456;2023-04-21T11:49:56;18.25;;;15.35;;
22715;SDS011;11525;51.152;4.456;2023-04-21T11:52:30;18.33;;;14.48;;
22715;SDS011;11525;51.152;4.456;2023-04-21T11:54:58;16.10;;;14.38;;
22715;SDS011;11525;51.152;4.456;2023-04-21T11:57:35;21.48;;;17.92;;
22715;SDS011;11525;51.152;4.456;2023-04-21T12:00:04;20.60;;;17.55;;
22715;SDS011;11525;51.152;4.456;2023-04-21T12:02:31;20.13;;;17.40;;
22715;SDS011;11525;51.152;4.456;2023-04-21T12:04:58;16.40;;;14.70;;
22715;SDS011;11525;51.152;4.456;2023-04-21T12:07:28;17.70;;;14.25;;
22715;SDS011;11525;51.152;4.456;2023-04-21T12:09:55;20.45;;;17.88;;
22715;SDS011;11525;51.152;4.456;2023-04-21T12:12:21;19.75;;;16.88;;
22715;SDS011;11525;51.152;4.456;2023-04-21T12:14:48;16.55;;;14.27;;
22715;SDS011;11525;51.152;4.456;2023-04-21T12:17:15;18.25;;;13.48;;
22715;SDS011;11525;51.152;4.456;2023-04-21T12:19:41;18.30;;;13.73;;
22715;SDS011;11525;51.152;4.456;2023-04-21T12:22:08;15.82;;;13.68;;
22715;SDS011;11525;51.152;4.456;2023-04-21T12:24:42;13.73;;;11.98;;
22715;SDS011;11525;51.152;4.456;2023-04-21T12:27:09;15.35;;;12.73;;
22715;SDS011;11525;51.152;4.456;2023-04-21T12:29:35;13.95;;;11.93;;
22715;SDS011;11525;51.152;4.456;2023-04-21T12:32:06;14.85;;;13.25;;
22715;SDS011;11525;51.152;4.456;2023-04-21T12:34:33;14.82;;;11.68;;
22715;SDS011;11525;51.152;4.456;2023-04-21T12:36:59;15.63;;;12.25;;
22715;SDS011;11525;51.152;4.456;2023-04-21T12:39:25;16.20;;;13.40;;
22715;SDS011;11525;51.152;4.456;2023-04-21T12:41:51;13.77;;;11.35;;
22715;SDS011;11525;51.152;4.456;2023-04-21T12:44:17;14.57;;;10.85;;
22715;SDS011;11525;51.152;4.456;2023-04-21T12:46:42;12.57;;;10.95;;
22715;SDS011;11525;51.152;4.456;2023-04-21T12:49:08;11.45;;;10.25;;
22715;SDS011;11525;51.152;4.456;2023-04-21T12:51:35;14.45;;;10.55;;
22715;SDS011;11525;51.152;4.456;2023-04-21T12:54:01;12.45;;;10.63;;
22715;SDS011;11525;51.152;4.456;2023-04-21T12:56:27;11.90;;;10.52;;
22715;SDS011;11525;51.152;4.456;2023-04-21T12:58:54;17.02;;;11.13;;
22715;SDS011;11525;51.152;4.456;2023-04-21T13:01:20;11.07;;;8.90;;
22715;SDS011;11525;51.152;4.456;2023-04-21T13:03:46;10.93;;;8.40;;
22715;SDS011;11525;51.152;4.456;2023-04-21T13:06:13;9.27;;;7.82;;
22715;SDS011;11525;51.152;4.456;2023-04-21T13:08:39;9.23;;;7.93;;
22715;SDS011;11525;51.152;4.456;2023-04-21T13:11:04;9.18;;;7.00;;
22715;SDS011;11525;51.152;4.456;2023-04-21T13:13:30;8.10;;;7.03;;
22715;SDS011;11525;51.152;4.456;2023-04-21T13:15:56;10.23;;;8.73;;
22715;SDS011;11525;51.152;4.456;2023-04-21T13:18:22;10.50;;;7.18;;
22715;SDS011;11525;51.152;4.456;2023-04-21T13:20:48;8.75;;;7.53;;
22715;SDS011;11525;51.152;4.456;2023-04-21T13:23:14;13.02;;;7.90;;
22715;SDS011;11525;51.152;4.456;2023-04-21T13:25:40;9.48;;;7.25;;
22715;SDS011;11525;51.152;4.456;2023-04-21T13:28:06;9.13;;;7.78;;
22715;SDS011;11525;51.152;4.456;2023-04-21T13:30:32;9.18;;;8.10;;
22715;SDS011;11525;51.152;4.456;2023-04-21T13:32:59;9.80;;;7.43;;
22715;SDS011;11525;51.152;4.456;2023-04-21T13:35:24;7.88;;;6.97;;
22715;SDS011;11525;51.152;4.456;2023-04-21T13:37:50;8.70;;;7.80;;
22715;SDS011;11525;51.152;4.456;2023-04-21T13:40:16;8.88;;;6.32;;
22715;SDS011;11525;51.152;4.456;2023-04-21T13:42:42;8.20;;;6.95;;
22715;SDS011;11525;51.152;4.456;2023-04-21T13:45:08;9.40;;;6.40;;
22715;SDS011;11525;51.152;4.456;2023-04-21T13:47:34;8.02;;;7.00;;
22715;SDS011;11525;51.152;4.456;2023-04-21T13:50:00;7.38;;;6.30;;
22715;SDS011;11525;51.152;4.456;2023-04-21T13:52:26;7.53;;;6.18;;
22715;SDS011;11525;51.152;4.456;2023-04-21T13:54:52;6.80;;;5.63;;
22715;SDS011;11525;51.152;4.456;2023-04-21T13:57:18;7.13;;;5.85;;
22715;SDS011;11525;51.152;4.456;2023-04-21T13:59:45;5.60;;;4.63;;
22715;SDS011;11525;51.152;4.456;2023-04-21T14:02:12;5.15;;;4.63;;
22715;SDS011;11525;51.152;4.456;2023-04-21T14:04:37;6.40;;;4.75;;
22715;SDS011;11525;51.152;4.456;2023-04-21T14:07:04;5.80;;;5.15;;
22715;SDS011;11525;51.152;4.456;2023-04-21T14:09:32;6.00;;;5.22;;
22715;SDS011;11525;51.152;4.456;2023-04-21T14:11:58;5.72;;;5.13;;
22715;SDS011;11525;51.152;4.456;2023-04-21T14:14:25;6.43;;;5.25;;
22715;SDS011;11525;51.152;4.456;2023-04-21T14:16:51;9.57;;;4.85;;
22715;SDS011;11525;51.152;4.456;2023-04-21T14:19:17;6.32;;;5.03;;
22715;SDS011;11525;51.152;4.456;2023-04-21T14:21:43;6.90;;;6.22;;
22715;SDS011;11525;51.152;4.456;2023-04-21T14:24:09;7.00;;;6.22;;
22715;SDS011;11525;51.152;4.456;2023-04-21T14:26:34;9.02;;;6.30;;